sensor_id;sensor_type;location;lat;lon;timestamp;P1;durP1;ratioP1;P2;durP2;ratioP2
67272;SDS011;54190;49.770;9.250;2023-04-03T00:00:41;3.13;;;2.60;;
67272;SDS011;54190;49.770;9.250;2023-04-03T00:03:06;4.23;;;2.70;;
67272;SDS011;54190;49.770;9.250;2023-04-03T00:05:32;3.70;;;2.60;;
67272;SDS011;54190;49.770;9.250;2023-04-03T00:07:58;3.53;;;3.00;;
67272;SDS011;54190;49.770;9.250;2023-04-03T00:10:24;5.17;;;2.43;;
67272;SDS011;54190;49.770;9.250;2023-04-03T00:12:49;4.40;;;2.97;;
67272;SDS011;54190;49.770;9.250;2023-04-03T00:15:15;4.77;;;2.73;;
67272;SDS011;54190;49.770;9.250;2023-04-03T00:17:41;3.90;;;3.20;;
67272;SDS011;54190;49.770;9.250;2023-04-03T00:20:07;4.17;;;3.30;;
67272;SDS011;54190;49.770;9.250;2023-04-03T00:22:33;4.87;;;3.27;;
67272;SDS011;54190;49.770;9.250;2023-04-03T00:24:59;4.33;;;3.00;;
67272;SDS011;54190;49.770;9.250;2023-04-03T00:27:25;4.43;;;2.80;;
67272;SDS011;54190;49.770;9.250;2023-04-03T00:29:50;5.20;;;3.00;;
67272;SDS011;54190;49.770;9.250;2023-04-03T00:32:16;6.77;;;3.23;;
67272;SDS011;54190;49.770;9.250;2023-04-03T00:34:42;4.43;;;3.10;;
67272;SDS011;54190;49.770;9.250;2023-04-03T00:37:07;6.07;;;4.10;;
67272;SDS011;54190;49.770;9.250;2023-04-03T00:39:33;7.97;;;3.60;;
67272;SDS011;54190;49.770;9.250;2023-04-03T00:41:59;6.20;;;4.27;;
67272;SDS011;54190;49.770;9.250;2023-04-03T00:46:53;5.70;;;3.90;;
67272;SDS011;54190;49.770;9.250;2023-04-03T00:49:18;6.67;;;3.70;;
67272;SDS011;54190;49.770;9.250;2023-04-03T00:51:44;4.00;;;3.20;;
67272;SDS011;54190;49.770;9.250;2023-04-03T00:54:11;3.70;;;3.33;;
67272;SDS011;54190;49.770;9.250;2023-04-03T00:56:37;5.13;;;3.30;;
67272;SDS011;54190;49.770;9.250;2023-04-03T00:59:04;5.00;;;3.37;;
67272;SDS011;54190;49.770;9.250;2023-04-03T01:01:35;4.70;;;3.30;;
67272;SDS011;54190;49.770;9.250;2023-04-03T01:04:02;4.60;;;3.43;;
67272;SDS011;54190;49.770;9.250;2023-04-03T01:06:29;4.03;;;3.30;;
67272;SDS011;54190;49.770;9.250;2023-04-03T01:09:03;4.93;;;3.50;;
67272;SDS011;54190;49.770;9.250;2023-04-03T01:11:30;4.93;;;3.60;;
67272;SDS011;54190;49.770;9.250;2023-04-03T01:13:55;4.37;;;3.63;;
67272;SDS011;54190;49.770;9.250;2023-04-03T01:16:22;8.17;;;4.33;;
67272;SDS011;54190;49.770;9.250;2023-04-03T01:18:48;4.90;;;3.67;;
67272;SDS011;54190;49.770;9.250;2023-04-03T01:24:21;5.60;;;4.00;;
67272;SDS011;54190;49.770;9.250;2023-04-03T01:26:58;4.97;;;3.93;;
67272;SDS011;54190;49.770;9.250;2023-04-03T01:29:24;5.53;;;4.10;;
67272;SDS011;54190;49.770;9.250;2023-04-03T01:31:51;5.73;;;4.47;;
67272;SDS011;54190;49.770;9.250;2023-04-03T01:34:18;7.83;;;5.57;;
67272;SDS011;54190;49.770;9.250;2023-04-03T01:36:45;5.40;;;4.70;;
67272;SDS011;54190;49.770;9.250;2023-04-03T01:39:11;7.80;;;4.00;;
67272;SDS011;54190;49.770;9.250;2023-04-03T01:41:37;6.03;;;4.33;;
67272;SDS011;54190;49.770;9.250;2023-04-03T01:44:11;6.40;;;4.80;;
67272;SDS011;54190;49.770;9.250;2023-04-03T01:46:37;7.63;;;4.40;;
67272;SDS011;54190;49.770;9.250;2023-04-03T01:49:03;4.40;;;3.67;;
67272;SDS011;54190;49.770;9.250;2023-04-03T01:51:30;7.33;;;3.93;;
67272;SDS011;54190;49.770;9.250;2023-04-03T01:53:55;6.50;;;3.90;;
67272;SDS011;54190;49.770;9.250;2023-04-03T01:56:21;3.30;;;2.90;;
67272;SDS011;54190;49.770;9.250;2023-04-03T01:58:47;4.07;;;3.03;;
67272;SDS011;54190;49.770;9.250;2023-04-03T02:01:13;4.57;;;3.10;;
67272;SDS011;54190;49.770;9.250;2023-04-03T02:03:40;4.73;;;3.40;;
67272;SDS011;54190;49.770;9.250;2023-04-03T02:06:05;7.90;;;3.33;;
67272;SDS011;54190;49.770;9.250;2023-04-03T02:08:32;4.10;;;3.10;;
67272;SDS011;54190;49.770;9.250;2023-04-03T02:10:58;4.47;;;2.83;;
67272;SDS011;54190;49.770;9.250;2023-04-03T02:13:23;7.67;;;3.27;;
67272;SDS011;54190;49.770;9.250;2023-04-03T02:15:49;3.83;;;2.80;;
67272;SDS011;54190;49.770;9.250;2023-04-03T02:18:16;4.30;;;2.90;;
67272;SDS011;54190;49.770;9.250;2023-04-03T02:20:42;4.60;;;3.20;;
67272;SDS011;54190;49.770;9.250;2023-04-03T02:23:07;3.13;;;2.40;;
67272;SDS011;54190;49.770;9.250;2023-04-03T02:25:33;3.20;;;2.63;;
67272;SDS011;54190;49.770;9.250;2023-04-03T02:27:59;3.60;;;2.73;;
67272;SDS011;54190;49.770;9.250;2023-04-03T02:30:25;4.93;;;2.80;;
67272;SDS011;54190;49.770;9.250;2023-04-03T02:32:51;5.50;;;2.77;;
67272;SDS011;54190;49.770;9.250;2023-04-03T02:35:17;4.83;;;2.87;;
67272;SDS011;54190;49.770;9.250;2023-04-03T02:37:43;3.00;;;2.60;;
67272;SDS011;54190;49.770;9.250;2023-04-03T02:40:09;3.60;;;2.60;;
67272;SDS011;54190;49.770;9.250;2023-04-03T02:42:36;4.33;;;3.00;;
67272;SDS011;54190;49.770;9.250;2023-04-03T02:45:02;4.90;;;2.90;;
67272;SDS011;54190;49.770;9.250;2023-04-03T02:47:28;4.30;;;3.00;;
67272;SDS011;54190;49.770;9.250;2023-04-03T02:49:54;6.77;;;2.37;;
67272;SDS011;54190;49.770;9.250;2023-04-03T02:52:20;3.30;;;2.77;;
67272;SDS011;54190;49.770;9.250;2023-04-03T02:54:47;7.20;;;3.50;;
67272;SDS011;54190;49.770;9.250;2023-04-03T02:57:13;6.47;;;4.37;;
67272;SDS011;54190;49.770;9.250;2023-04-03T02:59:38;5.57;;;4.00;;
67272;SDS011;54190;49.770;9.250;2023-04-03T03:02:06;5.63;;;3.80;;
67272;SDS011;54190;49.770;9.250;2023-04-03T03:04:33;7.00;;;4.97;;
67272;SDS011;54190;49.770;9.250;2023-04-03T03:06:59;7.40;;;4.73;;
67272;SDS011;54190;49.770;9.250;2023-04-03T03:09:24;6.90;;;4.80;;
67272;SDS011;54190;49.770;9.250;2023-04-03T03:11:51;8.40;;;4.90;;
67272;SDS011;54190;49.770;9.250;2023-04-03T03:14:17;6.43;;;5.10;;
67272;SDS011;54190;49.770;9.250;2023-04-03T03:16:43;6.10;;;5.00;;
67272;SDS011;54190;49.770;9.250;2023-04-03T03:19:10;7.13;;;5.00;;
67272;SDS011;54190;49.770;9.250;2023-04-03T03:21:36;6.40;;;4.60;;
67272;SDS011;54190;49.770;9.250;2023-04-03T03:24:01;6.83;;;4.80;;
67272;SDS011;54190;49.770;9.250;2023-04-03T03:26:27;5.60;;;4.53;;
67272;SDS011;54190;49.770;9.250;2023-04-03T03:28:54;5.97;;;4.70;;
67272;SDS011;54190;49.770;9.250;2023-04-03T03:31:19;9.17;;;5.07;;
67272;SDS011;54190;49.770;9.250;2023-04-03T03:33:45;6.87;;;4.60;;
67272;SDS011;54190;49.770;9.250;2023-04-03T03:36:11;7.30;;;4.30;;
67272;SDS011;54190;49.770;9.250;2023-04-03T03:38:37;7.17;;;4.80;;
67272;SDS011;54190;49.770;9.250;2023-04-03T03:41:03;7.77;;;5.17;;
67272;SDS011;54190;49.770;9.250;2023-04-03T03:43:31;9.90;;;4.50;;
67272;SDS011;54190;49.770;9.250;2023-04-03T03:45:57;7.33;;;5.10;;
67272;SDS011;54190;49.770;9.250;2023-04-03T03:48:24;9.93;;;5.00;;
67272;SDS011;54190;49.770;9.250;2023-04-03T03:50:50;5.80;;;4.77;;
67272;SDS011;54190;49.770;9.250;2023-04-03T03:53:17;7.33;;;5.20;;
67272;SDS011;54190;49.770;9.250;2023-04-03T03:55:43;5.63;;;5.03;;
67272;SDS011;54190;49.770;9.250;2023-04-03T03:58:09;7.30;;;4.57;;
67272;SDS011;54190;49.770;9.250;2023-04-03T04:00:35;5.27;;;4.43;;
67272;SDS011;54190;49.770;9.250;2023-04-03T04:03:01;7.30;;;4.60;;
67272;SDS011;54190;49.770;9.250;2023-04-03T04:05:28;10.60;;;4.53;;
67272;SDS011;54190;49.770;9.250;2023-04-03T04:07:54;6.13;;;4.40;;
67272;SDS011;54190;49.770;9.250;2023-04-03T04:10:21;8.80;;;4.87;;
67272;SDS011;54190;49.770;9.250;2023-04-03T04:12:47;9.30;;;5.17;;
67272;SDS011;54190;49.770;9.250;2023-04-03T04:15:14;7.43;;;4.40;;
67272;SDS011;54190;49.770;9.250;2023-04-03T04:17:40;6.47;;;4.20;;
67272;SDS011;54190;49.770;9.250;2023-04-03T04:20:10;7.03;;;4.70;;
67272;SDS011;54190;49.770;9.250;2023-04-03T04:22:36;5.03;;;4.17;;
67272;SDS011;54190;49.770;9.250;2023-04-03T04:25:03;6.00;;;4.47;;
67272;SDS011;54190;49.770;9.250;2023-04-03T04:27:29;5.83;;;4.30;;
67272;SDS011;54190;49.770;9.250;2023-04-03T04:29:55;6.43;;;4.57;;
67272;SDS011;54190;49.770;9.250;2023-04-03T04:32:21;5.33;;;4.10;;
67272;SDS011;54190;49.770;9.250;2023-04-03T04:34:47;5.60;;;3.80;;
67272;SDS011;54190;49.770;9.250;2023-04-03T04:37:13;5.47;;;3.90;;
67272;SDS011;54190;49.770;9.250;2023-04-03T04:39:39;6.87;;;4.83;;
67272;SDS011;54190;49.770;9.250;2023-04-03T04:42:05;4.80;;;3.97;;
67272;SDS011;54190;49.770;9.250;2023-04-03T04:44:32;6.23;;;4.70;;
67272;SDS011;54190;49.770;9.250;2023-04-03T04:46:58;8.63;;;6.57;;
67272;SDS011;54190;49.770;9.250;2023-04-03T04:49:23;13.47;;;9.13;;
67272;SDS011;54190;49.770;9.250;2023-04-03T04:51:50;8.53;;;6.60;;
67272;SDS011;54190;49.770;9.250;2023-04-03T04:54:17;5.10;;;4.10;;
67272;SDS011;54190;49.770;9.250;2023-04-03T04:56:44;5.43;;;4.10;;
67272;SDS011;54190;49.770;9.250;2023-04-03T04:59:10;6.17;;;3.90;;
67272;SDS011;54190;49.770;9.250;2023-04-03T05:01:36;6.83;;;4.90;;
67272;SDS011;54190;49.770;9.250;2023-04-03T05:04:07;5.90;;;4.60;;
67272;SDS011;54190;49.770;9.250;2023-04-03T05:06:33;15.90;;;10.47;;
67272;SDS011;54190;49.770;9.250;2023-04-03T05:09:01;213.60;;;105.23;;
67272;SDS011;54190;49.770;9.250;2023-04-03T05:11:28;191.83;;;92.60;;
67272;SDS011;54190;49.770;9.250;2023-04-03T05:13:54;77.33;;;39.17;;
67272;SDS011;54190;49.770;9.250;2023-04-03T05:16:22;29.33;;;16.57;;
67272;SDS011;54190;49.770;9.250;2023-04-03T05:18:47;28.33;;;18.17;;
67272;SDS011;54190;49.770;9.250;2023-04-03T05:21:17;25.20;;;17.10;;
67272;SDS011;54190;49.770;9.250;2023-04-03T05:23:45;17.63;;;12.30;;
67272;SDS011;54190;49.770;9.250;2023-04-03T05:26:10;7.67;;;5.40;;
67272;SDS011;54190;49.770;9.250;2023-04-03T05:28:37;9.43;;;3.93;;
67272;SDS011;54190;49.770;9.250;2023-04-03T05:31:03;4.37;;;3.30;;
67272;SDS011;54190;49.770;9.250;2023-04-03T05:33:33;5.53;;;3.30;;
67272;SDS011;54190;49.770;9.250;2023-04-03T05:36:03;4.47;;;3.30;;
67272;SDS011;54190;49.770;9.250;2023-04-03T05:38:30;6.23;;;3.70;;
67272;SDS011;54190;49.770;9.250;2023-04-03T05:40:57;5.67;;;3.27;;
67272;SDS011;54190;49.770;9.250;2023-04-03T05:43:22;12.00;;;3.90;;
67272;SDS011;54190;49.770;9.250;2023-04-03T05:45:49;7.40;;;3.90;;
67272;SDS011;54190;49.770;9.250;2023-04-03T05:48:15;4.50;;;3.00;;
67272;SDS011;54190;49.770;9.250;2023-04-03T05:50:41;5.60;;;3.43;;
67272;SDS011;54190;49.770;9.250;2023-04-03T05:53:17;7.77;;;3.20;;
67272;SDS011;54190;49.770;9.250;2023-04-03T05:55:46;5.57;;;3.50;;
67272;SDS011;54190;49.770;9.250;2023-04-03T05:58:11;8.80;;;3.80;;
67272;SDS011;54190;49.770;9.250;2023-04-03T06:00:38;9.77;;;3.30;;
67272;SDS011;54190;49.770;9.250;2023-04-03T06:03:05;4.73;;;2.90;;
67272;SDS011;54190;49.770;9.250;2023-04-03T06:05:31;6.80;;;3.30;;
67272;SDS011;54190;49.770;9.250;2023-04-03T06:07:57;7.07;;;3.63;;
67272;SDS011;54190;49.770;9.250;2023-04-03T06:10:23;6.50;;;2.93;;
67272;SDS011;54190;49.770;9.250;2023-04-03T06:12:49;7.10;;;3.03;;
67272;SDS011;54190;49.770;9.250;2023-04-03T06:15:15;5.80;;;3.03;;
67272;SDS011;54190;49.770;9.250;2023-04-03T06:17:42;8.40;;;3.20;;
67272;SDS011;54190;49.770;9.250;2023-04-03T06:20:08;6.30;;;3.30;;
67272;SDS011;54190;49.770;9.250;2023-04-03T06:22:36;8.17;;;3.30;;
67272;SDS011;54190;49.770;9.250;2023-04-03T06:25:02;5.20;;;3.30;;
67272;SDS011;54190;49.770;9.250;2023-04-03T06:27:28;5.80;;;2.90;;
67272;SDS011;54190;49.770;9.250;2023-04-03T06:29:54;6.93;;;3.20;;
67272;SDS011;54190;49.770;9.250;2023-04-03T06:32:19;4.23;;;3.20;;
67272;SDS011;54190;49.770;9.250;2023-04-03T06:34:45;4.00;;;2.70;;
67272;SDS011;54190;49.770;9.250;2023-04-03T06:37:15;4.67;;;2.77;;
67272;SDS011;54190;49.770;9.250;2023-04-03T06:39:42;4.73;;;2.60;;
67272;SDS011;54190;49.770;9.250;2023-04-03T06:42:08;4.67;;;2.60;;
67272;SDS011;54190;49.770;9.250;2023-04-03T06:44:38;5.10;;;2.40;;
67272;SDS011;54190;49.770;9.250;2023-04-03T06:47:04;4.20;;;3.00;;
67272;SDS011;54190;49.770;9.250;2023-04-03T06:49:30;5.40;;;2.10;;
67272;SDS011;54190;49.770;9.250;2023-04-03T06:51:56;3.37;;;2.40;;
67272;SDS011;54190;49.770;9.250;2023-04-03T06:54:22;4.10;;;2.37;;
67272;SDS011;54190;49.770;9.250;2023-04-03T06:56:48;5.30;;;2.60;;
67272;SDS011;54190;49.770;9.250;2023-04-03T06:59:14;9.73;;;2.90;;
67272;SDS011;54190;49.770;9.250;2023-04-03T07:01:40;3.70;;;2.27;;
67272;SDS011;54190;49.770;9.250;2023-04-03T07:04:07;5.17;;;2.53;;
67272;SDS011;54190;49.770;9.250;2023-04-03T07:06:32;4.03;;;2.50;;
67272;SDS011;54190;49.770;9.250;2023-04-03T07:08:59;2.80;;;2.00;;
67272;SDS011;54190;49.770;9.250;2023-04-03T07:11:25;5.00;;;2.00;;
67272;SDS011;54190;49.770;9.250;2023-04-03T07:13:51;3.40;;;2.30;;
67272;SDS011;54190;49.770;9.250;2023-04-03T07:16:17;5.30;;;2.50;;
67272;SDS011;54190;49.770;9.250;2023-04-03T07:18:43;5.70;;;2.97;;
67272;SDS011;54190;49.770;9.250;2023-04-03T07:21:09;5.23;;;3.77;;
67272;SDS011;54190;49.770;9.250;2023-04-03T07:23:35;3.13;;;2.40;;
67272;SDS011;54190;49.770;9.250;2023-04-03T07:26:01;4.50;;;2.50;;
67272;SDS011;54190;49.770;9.250;2023-04-03T07:28:27;3.87;;;2.53;;
67272;SDS011;54190;49.770;9.250;2023-04-03T07:31:03;3.80;;;2.30;;
67272;SDS011;54190;49.770;9.250;2023-04-03T07:33:36;6.17;;;2.27;;
67272;SDS011;54190;49.770;9.250;2023-04-03T07:36:03;3.93;;;2.53;;
67272;SDS011;54190;49.770;9.250;2023-04-03T07:38:29;6.33;;;2.20;;
67272;SDS011;54190;49.770;9.250;2023-04-03T07:40:55;9.97;;;2.63;;
67272;SDS011;54190;49.770;9.250;2023-04-03T07:43:22;3.67;;;2.40;;
67272;SDS011;54190;49.770;9.250;2023-04-03T07:45:49;3.27;;;1.67;;
67272;SDS011;54190;49.770;9.250;2023-04-03T07:48:16;2.60;;;2.00;;
67272;SDS011;54190;49.770;9.250;2023-04-03T07:50:43;3.30;;;2.03;;
67272;SDS011;54190;49.770;9.250;2023-04-03T07:53:09;8.87;;;2.37;;
67272;SDS011;54190;49.770;9.250;2023-04-03T07:55:35;6.90;;;2.13;;
67272;SDS011;54190;49.770;9.250;2023-04-03T07:58:08;4.97;;;2.20;;
67272;SDS011;54190;49.770;9.250;2023-04-03T08:00:43;4.00;;;2.10;;
67272;SDS011;54190;49.770;9.250;2023-04-03T08:03:09;2.37;;;2.10;;
67272;SDS011;54190;49.770;9.250;2023-04-03T08:05:36;4.20;;;2.60;;
67272;SDS011;54190;49.770;9.250;2023-04-03T08:08:02;7.57;;;2.33;;
67272;SDS011;54190;49.770;9.250;2023-04-03T08:10:32;2.70;;;2.20;;
67272;SDS011;54190;49.770;9.250;2023-04-03T08:12:58;4.13;;;2.33;;
67272;SDS011;54190;49.770;9.250;2023-04-03T08:15:24;2.90;;;2.20;;
67272;SDS011;54190;49.770;9.250;2023-04-03T08:17:50;2.67;;;1.90;;
67272;SDS011;54190;49.770;9.250;2023-04-03T08:20:16;2.33;;;1.50;;
67272;SDS011;54190;49.770;9.250;2023-04-03T08:22:42;2.77;;;1.57;;
67272;SDS011;54190;49.770;9.250;2023-04-03T08:25:08;4.23;;;2.07;;
67272;SDS011;54190;49.770;9.250;2023-04-03T08:27:34;2.80;;;1.63;;
67272;SDS011;54190;49.770;9.250;2023-04-03T08:30:00;4.90;;;1.87;;
67272;SDS011;54190;49.770;9.250;2023-04-03T08:32:26;3.53;;;1.90;;
67272;SDS011;54190;49.770;9.250;2023-04-03T08:34:52;3.10;;;2.10;;
67272;SDS011;54190;49.770;9.250;2023-04-03T08:37:18;2.43;;;1.80;;
67272;SDS011;54190;49.770;9.250;2023-04-03T08:39:44;4.10;;;1.90;;
67272;SDS011;54190;49.770;9.250;2023-04-03T08:45:04;2.67;;;2.00;;
67272;SDS011;54190;49.770;9.250;2023-04-03T08:50:13;5.20;;;2.20;;
67272;SDS011;54190;49.770;9.250;2023-04-03T08:52:44;5.87;;;2.00;;
67272;SDS011;54190;49.770;9.250;2023-04-03T08:58:05;4.20;;;1.90;;
67272;SDS011;54190;49.770;9.250;2023-04-03T09:00:43;5.40;;;2.03;;
67272;SDS011;54190;49.770;9.250;2023-04-03T09:03:20;3.10;;;2.00;;
67272;SDS011;54190;49.770;9.250;2023-04-03T09:05:48;2.53;;;1.73;;
67272;SDS011;54190;49.770;9.250;2023-04-03T09:08:22;2.63;;;1.80;;
67272;SDS011;54190;49.770;9.250;2023-04-03T09:11:40;2.80;;;1.77;;
67272;SDS011;54190;49.770;9.250;2023-04-03T09:13:59;3.87;;;2.20;;
67272;SDS011;54190;49.770;9.250;2023-04-03T09:16:32;4.50;;;2.03;;
67272;SDS011;54190;49.770;9.250;2023-04-03T09:21:47;3.27;;;2.27;;
67272;SDS011;54190;49.770;9.250;2023-04-03T09:24:14;4.80;;;2.50;;
67272;SDS011;54190;49.770;9.250;2023-04-03T09:29:15;4.93;;;2.20;;
67272;SDS011;54190;49.770;9.250;2023-04-03T09:31:44;3.50;;;1.90;;
67272;SDS011;54190;49.770;9.250;2023-04-03T09:34:26;3.40;;;2.07;;
67272;SDS011;54190;49.770;9.250;2023-04-03T09:36:54;3.90;;;2.20;;
67272;SDS011;54190;49.770;9.250;2023-04-03T09:39:24;5.07;;;3.03;;
67272;SDS011;54190;49.770;9.250;2023-04-03T09:41:58;2.93;;;2.07;;
67272;SDS011;54190;49.770;9.250;2023-04-03T09:44:30;3.90;;;2.07;;
67272;SDS011;54190;49.770;9.250;2023-04-03T09:46:58;5.00;;;2.50;;
67272;SDS011;54190;49.770;9.250;2023-04-03T09:49:25;3.83;;;2.10;;
67272;SDS011;54190;49.770;9.250;2023-04-03T09:51:51;3.50;;;1.93;;
67272;SDS011;54190;49.770;9.250;2023-04-03T09:54:31;3.70;;;2.30;;
67272;SDS011;54190;49.770;9.250;2023-04-03T09:57:06;7.07;;;3.27;;
67272;SDS011;54190;49.770;9.250;2023-04-03T09:59:44;6.63;;;2.40;;
67272;SDS011;54190;49.770;9.250;2023-04-03T10:04:50;4.00;;;2.57;;
67272;SDS011;54190;49.770;9.250;2023-04-03T10:07:30;4.70;;;2.53;;
67272;SDS011;54190;49.770;9.250;2023-04-03T10:10:23;5.23;;;2.53;;
67272;SDS011;54190;49.770;9.250;2023-04-03T10:13:03;3.30;;;2.13;;
67272;SDS011;54190;49.770;9.250;2023-04-03T10:15:42;5.50;;;2.87;;
67272;SDS011;54190;49.770;9.250;2023-04-03T10:18:53;5.97;;;2.40;;
67272;SDS011;54190;49.770;9.250;2023-04-03T10:21:02;3.40;;;2.30;;
67272;SDS011;54190;49.770;9.250;2023-04-03T10:23:46;3.57;;;2.40;;
67272;SDS011;54190;49.770;9.250;2023-04-03T10:31:30;3.20;;;2.20;;
67272;SDS011;54190;49.770;9.250;2023-04-03T10:42:49;4.00;;;2.63;;
67272;SDS011;54190;49.770;9.250;2023-04-03T10:45:53;5.70;;;2.50;;
67272;SDS011;54190;49.770;9.250;2023-04-03T10:48:52;6.73;;;2.70;;
67272;SDS011;54190;49.770;9.250;2023-04-03T10:51:37;3.63;;;2.43;;
67272;SDS011;54190;49.770;9.250;2023-04-03T10:54:24;5.00;;;2.63;;
67272;SDS011;54190;49.770;9.250;2023-04-03T10:57:06;3.40;;;2.50;;
67272;SDS011;54190;49.770;9.250;2023-04-03T10:59:39;4.40;;;2.57;;
67272;SDS011;54190;49.770;9.250;2023-04-03T11:04:52;5.80;;;2.80;;
67272;SDS011;54190;49.770;9.250;2023-04-03T11:07:23;3.30;;;2.70;;
67272;SDS011;54190;49.770;9.250;2023-04-03T11:09:55;5.90;;;2.50;;
67272;SDS011;54190;49.770;9.250;2023-04-03T11:12:31;3.60;;;2.47;;
67272;SDS011;54190;49.770;9.250;2023-04-03T11:15:06;4.03;;;2.47;;
67272;SDS011;54190;49.770;9.250;2023-04-03T11:17:42;3.23;;;2.60;;
67272;SDS011;54190;49.770;9.250;2023-04-03T11:20:31;7.23;;;2.70;;
67272;SDS011;54190;49.770;9.250;2023-04-03T11:23:00;3.00;;;2.60;;
67272;SDS011;54190;49.770;9.250;2023-04-03T11:25:31;4.27;;;2.70;;
67272;SDS011;54190;49.770;9.250;2023-04-03T11:28:09;5.70;;;2.73;;
67272;SDS011;54190;49.770;9.250;2023-04-03T11:30:46;2.87;;;2.30;;
67272;SDS011;54190;49.770;9.250;2023-04-03T11:33:21;3.90;;;2.20;;
67272;SDS011;54190;49.770;9.250;2023-04-03T11:36:10;2.83;;;2.10;;
67272;SDS011;54190;49.770;9.250;2023-04-03T11:38:43;2.77;;;2.10;;
67272;SDS011;54190;49.770;9.250;2023-04-03T11:41:12;3.80;;;2.50;;
67272;SDS011;54190;49.770;9.250;2023-04-03T11:43:58;3.27;;;2.50;;
67272;SDS011;54190;49.770;9.250;2023-04-03T11:55:35;4.50;;;2.33;;
67272;SDS011;54190;49.770;9.250;2023-04-03T12:26:47;2.83;;;2.20;;
67272;SDS011;54190;49.770;9.250;2023-04-03T12:29:23;2.63;;;1.87;;
67272;SDS011;54190;49.770;9.250;2023-04-03T12:46:21;2.80;;;2.30;;
67272;SDS011;54190;49.770;9.250;2023-04-03T12:48:49;3.17;;;2.20;;
67272;SDS011;54190;49.770;9.250;2023-04-03T12:51:27;5.07;;;2.33;;
67272;SDS011;54190;49.770;9.250;2023-04-03T12:53:57;3.27;;;2.20;;
67272;SDS011;54190;49.770;9.250;2023-04-03T12:56:30;3.77;;;2.00;;
67272;SDS011;54190;49.770;9.250;2023-04-03T13:01:53;3.90;;;2.20;;
67272;SDS011;54190;49.770;9.250;2023-04-03T13:04:20;3.00;;;1.97;;
67272;SDS011;54190;49.770;9.250;2023-04-03T13:06:47;4.43;;;2.10;;
67272;SDS011;54190;49.770;9.250;2023-04-03T13:09:26;3.40;;;2.00;;
67272;SDS011;54190;49.770;9.250;2023-04-03T13:11:57;3.10;;;1.70;;
67272;SDS011;54190;49.770;9.250;2023-04-03T13:14:38;2.20;;;1.80;;
67272;SDS011;54190;49.770;9.250;2023-04-03T13:17:15;3.07;;;1.80;;
67272;SDS011;54190;49.770;9.250;2023-04-03T13:19:41;2.47;;;1.80;;
67272;SDS011;54190;49.770;9.250;2023-04-03T13:22:10;2.40;;;1.63;;
67272;SDS011;54190;49.770;9.250;2023-04-03T13:24:40;6.80;;;2.13;;
67272;SDS011;54190;49.770;9.250;2023-04-03T13:27:10;5.60;;;1.87;;
67272;SDS011;54190;49.770;9.250;2023-04-03T13:29:36;2.53;;;1.90;;
67272;SDS011;54190;49.770;9.250;2023-04-03T13:32:04;2.60;;;2.07;;
67272;SDS011;54190;49.770;9.250;2023-04-03T13:34:38;8.63;;;2.23;;
67272;SDS011;54190;49.770;9.250;2023-04-03T13:37:11;3.33;;;2.00;;
67272;SDS011;54190;49.770;9.250;2023-04-03T13:42:34;3.40;;;2.10;;
67272;SDS011;54190;49.770;9.250;2023-04-03T13:47:50;3.23;;;2.00;;
67272;SDS011;54190;49.770;9.250;2023-04-03T13:50:18;2.70;;;1.60;;
67272;SDS011;54190;49.770;9.250;2023-04-03T13:52:54;2.53;;;2.00;;
67272;SDS011;54190;49.770;9.250;2023-04-03T13:55:26;2.40;;;1.67;;
67272;SDS011;54190;49.770;9.250;2023-04-03T14:00:38;5.10;;;2.13;;
67272;SDS011;54190;49.770;9.250;2023-04-03T14:03:24;3.67;;;1.80;;
67272;SDS011;54190;49.770;9.250;2023-04-03T14:05:56;3.53;;;2.10;;
67272;SDS011;54190;49.770;9.250;2023-04-03T14:08:22;2.80;;;1.80;;
67272;SDS011;54190;49.770;9.250;2023-04-03T14:10:48;3.00;;;1.53;;
67272;SDS011;54190;49.770;9.250;2023-04-03T14:13:17;3.53;;;2.07;;
67272;SDS011;54190;49.770;9.250;2023-04-03T14:15:44;3.47;;;2.03;;
67272;SDS011;54190;49.770;9.250;2023-04-03T14:18:12;4.00;;;2.00;;
67272;SDS011;54190;49.770;9.250;2023-04-03T14:20:40;4.63;;;2.37;;
67272;SDS011;54190;49.770;9.250;2023-04-03T14:23:06;3.37;;;2.10;;
67272;SDS011;54190;49.770;9.250;2023-04-03T14:25:33;2.67;;;1.80;;
67272;SDS011;54190;49.770;9.250;2023-04-03T14:28:00;3.50;;;2.07;;
67272;SDS011;54190;49.770;9.250;2023-04-03T14:30:31;4.20;;;2.50;;
67272;SDS011;54190;49.770;9.250;2023-04-03T14:32:58;3.67;;;1.93;;
67272;SDS011;54190;49.770;9.250;2023-04-03T14:35:24;4.10;;;2.07;;
67272;SDS011;54190;49.770;9.250;2023-04-03T14:37:51;2.70;;;1.87;;
67272;SDS011;54190;49.770;9.250;2023-04-03T14:40:19;7.00;;;2.27;;
67272;SDS011;54190;49.770;9.250;2023-04-03T14:42:47;3.53;;;1.70;;
67272;SDS011;54190;49.770;9.250;2023-04-03T14:45:14;3.10;;;2.07;;
67272;SDS011;54190;49.770;9.250;2023-04-03T14:47:43;3.93;;;2.17;;
67272;SDS011;54190;49.770;9.250;2023-04-03T14:50:16;3.33;;;1.87;;
67272;SDS011;54190;49.770;9.250;2023-04-03T14:52:46;4.67;;;1.87;;
67272;SDS011;54190;49.770;9.250;2023-04-03T14:55:15;2.77;;;2.10;;
67272;SDS011;54190;49.770;9.250;2023-04-03T14:57:43;4.30;;;1.90;;
67272;SDS011;54190;49.770;9.250;2023-04-03T15:00:13;2.43;;;1.70;;
67272;SDS011;54190;49.770;9.250;2023-04-03T15:02:40;5.10;;;2.10;;
67272;SDS011;54190;49.770;9.250;2023-04-03T15:05:08;3.23;;;1.90;;
67272;SDS011;54190;49.770;9.250;2023-04-03T15:07:42;4.13;;;2.10;;
67272;SDS011;54190;49.770;9.250;2023-04-03T15:12:40;3.33;;;2.20;;
67272;SDS011;54190;49.770;9.250;2023-04-03T15:15:07;2.90;;;2.00;;
67272;SDS011;54190;49.770;9.250;2023-04-03T15:17:33;5.03;;;2.10;;
67272;SDS011;54190;49.770;9.250;2023-04-03T15:20:00;3.73;;;2.10;;
67272;SDS011;54190;49.770;9.250;2023-04-03T15:22:27;6.00;;;2.53;;
67272;SDS011;54190;49.770;9.250;2023-04-03T15:24:52;4.33;;;2.00;;
67272;SDS011;54190;49.770;9.250;2023-04-03T15:27:18;5.23;;;2.40;;
67272;SDS011;54190;49.770;9.250;2023-04-03T15:29:44;3.70;;;2.10;;
67272;SDS011;54190;49.770;9.250;2023-04-03T15:32:10;3.87;;;2.17;;
67272;SDS011;54190;49.770;9.250;2023-04-03T15:34:37;4.60;;;2.60;;
67272;SDS011;54190;49.770;9.250;2023-04-03T15:37:03;4.30;;;2.13;;
67272;SDS011;54190;49.770;9.250;2023-04-03T15:39:28;3.17;;;2.10;;
67272;SDS011;54190;49.770;9.250;2023-04-03T15:41:54;3.13;;;2.20;;
67272;SDS011;54190;49.770;9.250;2023-04-03T15:44:20;4.30;;;2.47;;
67272;SDS011;54190;49.770;9.250;2023-04-03T15:46:47;3.73;;;2.47;;
67272;SDS011;54190;49.770;9.250;2023-04-03T15:49:17;4.50;;;2.47;;
67272;SDS011;54190;49.770;9.250;2023-04-03T15:51:44;5.17;;;2.40;;
67272;SDS011;54190;49.770;9.250;2023-04-03T15:54:10;4.03;;;2.40;;
67272;SDS011;54190;49.770;9.250;2023-04-03T15:56:36;4.50;;;2.10;;
67272;SDS011;54190;49.770;9.250;2023-04-03T15:59:02;2.63;;;2.00;;
67272;SDS011;54190;49.770;9.250;2023-04-03T16:01:28;3.00;;;2.03;;
67272;SDS011;54190;49.770;9.250;2023-04-03T16:03:54;5.33;;;2.53;;
67272;SDS011;54190;49.770;9.250;2023-04-03T16:06:20;3.63;;;2.13;;
67272;SDS011;54190;49.770;9.250;2023-04-03T16:08:46;6.93;;;2.47;;
67272;SDS011;54190;49.770;9.250;2023-04-03T16:11:13;3.63;;;2.30;;
67272;SDS011;54190;49.770;9.250;2023-04-03T16:13:39;4.30;;;2.10;;
67272;SDS011;54190;49.770;9.250;2023-04-03T16:16:05;3.50;;;2.33;;
67272;SDS011;54190;49.770;9.250;2023-04-03T16:18:31;3.50;;;2.37;;
67272;SDS011;54190;49.770;9.250;2023-04-03T16:21:00;3.20;;;2.30;;
67272;SDS011;54190;49.770;9.250;2023-04-03T16:23:25;3.93;;;2.23;;
67272;SDS011;54190;49.770;9.250;2023-04-03T16:25:51;4.63;;;1.90;;
67272;SDS011;54190;49.770;9.250;2023-04-03T16:28:17;3.00;;;2.00;;
67272;SDS011;54190;49.770;9.250;2023-04-03T16:30:43;2.50;;;1.80;;
67272;SDS011;54190;49.770;9.250;2023-04-03T16:33:10;3.67;;;1.77;;
67272;SDS011;54190;49.770;9.250;2023-04-03T16:35:37;4.60;;;2.00;;
67272;SDS011;54190;49.770;9.250;2023-04-03T16:38:03;4.87;;;2.17;;
67272;SDS011;54190;49.770;9.250;2023-04-03T16:40:29;4.37;;;2.27;;